sensor_id;sensor_type;location;lat;lon;timestamp;P1;durP1;ratioP1;P2;durP2;ratioP2
32323;SDS011;25666;44.350;9.222;2023-11-19T00:00:54;4.70;;;3.38;;
32323;SDS011;25666;44.350;9.222;2023-11-19T00:03:22;12.85;;;4.13;;
32323;SDS011;25666;44.350;9.222;2023-11-19T00:05:48;10.75;;;3.92;;
32323;SDS011;25666;44.350;9.222;2023-11-19T00:08:16;6.25;;;3.30;;
32323;SDS011;25666;44.350;9.222;2023-11-19T00:10:45;6.00;;;3.63;;
32323;SDS011;25666;44.350;9.222;2023-11-19T00:13:11;5.82;;;3.47;;
32323;SDS011;25666;44.350;9.222;2023-11-19T00:15:37;4.57;;;3.15;;
32323;SDS011;25666;44.350;9.222;2023-11-19T00:18:03;9.93;;;3.00;;
32323;SDS011;25666;44.350;9.222;2023-11-19T00:20:30;7.32;;;3.20;;
32323;SDS011;25666;44.350;9.222;2023-11-19T00:22:55;5.40;;;3.30;;
32323;SDS011;25666;44.350;9.222;2023-11-19T00:25:21;5.10;;;3.47;;
32323;SDS011;25666;44.350;9.222;2023-11-19T00:27:48;12.43;;;3.03;;
32323;SDS011;25666;44.350;9.222;2023-11-19T00:30:14;9.30;;;3.20;;
32323;SDS011;25666;44.350;9.222;2023-11-19T00:32:40;5.55;;;3.65;;
32323;SDS011;25666;44.350;9.222;2023-11-19T00:35:08;12.40;;;3.65;;
32323;SDS011;25666;44.350;9.222;2023-11-19T00:37:41;5.43;;;3.08;;
32323;SDS011;25666;44.350;9.222;2023-11-19T00:40:08;10.98;;;3.40;;
32323;SDS011;25666;44.350;9.222;2023-11-19T00:42:35;6.00;;;3.33;;
32323;SDS011;25666;44.350;9.222;2023-11-19T00:45:01;6.88;;;3.50;;
32323;SDS011;25666;44.350;9.222;2023-11-19T00:47:30;9.65;;;3.20;;
32323;SDS011;25666;44.350;9.222;2023-11-19T00:49:59;7.78;;;3.08;;
32323;SDS011;25666;44.350;9.222;2023-11-19T00:52:26;6.22;;;3.25;;
32323;SDS011;25666;44.350;9.222;2023-11-19T00:54:53;12.30;;;3.17;;
32323;SDS011;25666;44.350;9.222;2023-11-19T00:57:19;3.50;;;2.63;;
32323;SDS011;25666;44.350;9.222;2023-11-19T00:59:44;6.03;;;2.92;;
32323;SDS011;25666;44.350;9.222;2023-11-19T01:02:10;5.47;;;3.22;;
32323;SDS011;25666;44.350;9.222;2023-11-19T01:04:36;4.45;;;2.67;;
32323;SDS011;25666;44.350;9.222;2023-11-19T01:07:02;5.80;;;2.55;;
32323;SDS011;25666;44.350;9.222;2023-11-19T01:09:37;4.10;;;2.67;;
32323;SDS011;25666;44.350;9.222;2023-11-19T01:12:03;8.20;;;2.95;;
32323;SDS011;25666;44.350;9.222;2023-11-19T01:14:30;5.45;;;2.75;;
32323;SDS011;25666;44.350;9.222;2023-11-19T01:16:56;3.85;;;2.47;;
32323;SDS011;25666;44.350;9.222;2023-11-19T01:19:22;4.28;;;2.75;;
32323;SDS011;25666;44.350;9.222;2023-11-19T01:21:49;4.07;;;2.35;;
32323;SDS011;25666;44.350;9.222;2023-11-19T01:24:15;6.97;;;2.30;;
32323;SDS011;25666;44.350;9.222;2023-11-19T01:26:41;4.22;;;2.15;;
32323;SDS011;25666;44.350;9.222;2023-11-19T01:29:11;4.88;;;2.60;;
32323;SDS011;25666;44.350;9.222;2023-11-19T01:31:42;5.22;;;2.65;;
32323;SDS011;25666;44.350;9.222;2023-11-19T01:34:10;8.82;;;2.80;;
32323;SDS011;25666;44.350;9.222;2023-11-19T01:36:36;7.70;;;2.25;;
32323;SDS011;25666;44.350;9.222;2023-11-19T01:39:02;6.35;;;2.50;;
32323;SDS011;25666;44.350;9.222;2023-11-19T01:41:33;4.20;;;2.45;;
32323;SDS011;25666;44.350;9.222;2023-11-19T01:44:02;6.30;;;3.00;;
32323;SDS011;25666;44.350;9.222;2023-11-19T01:46:28;6.10;;;2.75;;
32323;SDS011;25666;44.350;9.222;2023-11-19T01:48:55;6.68;;;2.92;;
32323;SDS011;25666;44.350;9.222;2023-11-19T01:51:21;5.45;;;2.75;;
32323;SDS011;25666;44.350;9.222;2023-11-19T01:53:47;4.13;;;2.60;;
32323;SDS011;25666;44.350;9.222;2023-11-19T01:56:14;8.85;;;2.80;;
32323;SDS011;25666;44.350;9.222;2023-11-19T01:58:41;6.95;;;3.08;;
32323;SDS011;25666;44.350;9.222;2023-11-19T02:01:10;7.05;;;3.00;;
32323;SDS011;25666;44.350;9.222;2023-11-19T02:03:37;7.55;;;2.70;;
32323;SDS011;25666;44.350;9.222;2023-11-19T02:06:03;7.43;;;2.60;;
32323;SDS011;25666;44.350;9.222;2023-11-19T02:08:30;3.80;;;2.65;;
32323;SDS011;25666;44.350;9.222;2023-11-19T02:10:56;2.63;;;2.30;;
32323;SDS011;25666;44.350;9.222;2023-11-19T02:13:22;10.75;;;2.40;;
32323;SDS011;25666;44.350;9.222;2023-11-19T02:15:51;5.25;;;2.88;;
32323;SDS011;25666;44.350;9.222;2023-11-19T02:18:21;7.43;;;3.03;;
32323;SDS011;25666;44.350;9.222;2023-11-19T02:20:51;5.30;;;2.53;;
32323;SDS011;25666;44.350;9.222;2023-11-19T02:23:18;8.20;;;3.10;;
32323;SDS011;25666;44.350;9.222;2023-11-19T02:28:35;5.93;;;2.60;;
32323;SDS011;25666;44.350;9.222;2023-11-19T02:31:02;8.40;;;2.80;;
32323;SDS011;25666;44.350;9.222;2023-11-19T02:33:30;7.25;;;2.60;;
32323;SDS011;25666;44.350;9.222;2023-11-19T02:35:56;3.58;;;1.98;;
32323;SDS011;25666;44.350;9.222;2023-11-19T02:38:21;6.65;;;2.50;;
32323;SDS011;25666;44.350;9.222;2023-11-19T02:40:47;4.22;;;2.25;;
32323;SDS011;25666;44.350;9.222;2023-11-19T02:43:15;3.17;;;2.20;;
32323;SDS011;25666;44.350;9.222;2023-11-19T02:45:41;4.07;;;2.53;;
32323;SDS011;25666;44.350;9.222;2023-11-19T02:48:11;6.07;;;2.22;;
32323;SDS011;25666;44.350;9.222;2023-11-19T02:50:36;9.57;;;3.78;;
32323;SDS011;25666;44.350;9.222;2023-11-19T02:53:02;8.65;;;2.67;;
32323;SDS011;25666;44.350;9.222;2023-11-19T02:55:28;3.05;;;2.13;;
32323;SDS011;25666;44.350;9.222;2023-11-19T02:57:56;5.07;;;2.22;;
32323;SDS011;25666;44.350;9.222;2023-11-19T03:00:24;2.60;;;2.40;;
32323;SDS011;25666;44.350;9.222;2023-11-19T03:02:50;5.80;;;2.22;;
32323;SDS011;25666;44.350;9.222;2023-11-19T03:05:25;10.77;;;3.03;;
32323;SDS011;25666;44.350;9.222;2023-11-19T03:07:54;12.07;;;3.35;;
32323;SDS011;25666;44.350;9.222;2023-11-19T03:10:20;7.53;;;2.08;;
32323;SDS011;25666;44.350;9.222;2023-11-19T03:12:45;6.38;;;2.40;;
32323;SDS011;25666;44.350;9.222;2023-11-19T03:15:11;5.90;;;2.20;;
32323;SDS011;25666;44.350;9.222;2023-11-19T03:17:40;3.22;;;2.10;;
32323;SDS011;25666;44.350;9.222;2023-11-19T03:20:09;7.90;;;2.30;;
32323;SDS011;25666;44.350;9.222;2023-11-19T03:22:39;7.03;;;2.55;;
32323;SDS011;25666;44.350;9.222;2023-11-19T03:25:06;4.18;;;2.33;;
32323;SDS011;25666;44.350;9.222;2023-11-19T03:27:39;6.28;;;2.47;;
32323;SDS011;25666;44.350;9.222;2023-11-19T03:30:07;5.05;;;1.98;;
32323;SDS011;25666;44.350;9.222;2023-11-19T03:32:34;4.88;;;2.33;;
32323;SDS011;25666;44.350;9.222;2023-11-19T03:35:04;5.00;;;2.42;;
32323;SDS011;25666;44.350;9.222;2023-11-19T03:39:58;6.07;;;2.58;;
32323;SDS011;25666;44.350;9.222;2023-11-19T03:42:25;5.03;;;2.53;;
32323;SDS011;25666;44.350;9.222;2023-11-19T03:44:52;4.10;;;2.22;;
32323;SDS011;25666;44.350;9.222;2023-11-19T03:47:19;5.40;;;2.50;;
32323;SDS011;25666;44.350;9.222;2023-11-19T03:49:51;6.07;;;2.33;;
32323;SDS011;25666;44.350;9.222;2023-11-19T03:52:17;7.90;;;2.88;;
32323;SDS011;25666;44.350;9.222;2023-11-19T03:54:43;6.45;;;2.03;;
32323;SDS011;25666;44.350;9.222;2023-11-19T03:57:09;6.60;;;2.03;;
32323;SDS011;25666;44.350;9.222;2023-11-19T03:59:38;7.57;;;2.42;;
32323;SDS011;25666;44.350;9.222;2023-11-19T04:02:05;4.72;;;2.47;;
32323;SDS011;25666;44.350;9.222;2023-11-19T04:04:31;8.80;;;2.63;;
32323;SDS011;25666;44.350;9.222;2023-11-19T04:06:57;10.52;;;2.58;;
32323;SDS011;25666;44.350;9.222;2023-11-19T04:09:23;7.05;;;2.40;;
32323;SDS011;25666;44.350;9.222;2023-11-19T04:11:49;4.50;;;2.35;;
32323;SDS011;25666;44.350;9.222;2023-11-19T04:14:14;5.55;;;2.13;;
32323;SDS011;25666;44.350;9.222;2023-11-19T04:16:43;6.20;;;2.08;;
32323;SDS011;25666;44.350;9.222;2023-11-19T04:19:10;5.70;;;2.10;;
32323;SDS011;25666;44.350;9.222;2023-11-19T04:21:36;11.30;;;2.47;;
32323;SDS011;25666;44.350;9.222;2023-11-19T04:24:02;3.28;;;2.53;;
32323;SDS011;25666;44.350;9.222;2023-11-19T04:26:28;4.13;;;2.92;;
32323;SDS011;25666;44.350;9.222;2023-11-19T04:28:57;6.07;;;2.63;;
32323;SDS011;25666;44.350;9.222;2023-11-19T04:31:22;2.33;;;2.10;;
32323;SDS011;25666;44.350;9.222;2023-11-19T04:33:48;9.05;;;2.03;;
32323;SDS011;25666;44.350;9.222;2023-11-19T04:36:18;5.05;;;2.40;;
32323;SDS011;25666;44.350;9.222;2023-11-19T04:38:44;4.75;;;2.50;;
32323;SDS011;25666;44.350;9.222;2023-11-19T04:41:09;3.53;;;2.28;;
32323;SDS011;25666;44.350;9.222;2023-11-19T04:43:36;5.53;;;2.10;;
32323;SDS011;25666;44.350;9.222;2023-11-19T04:46:03;3.15;;;2.25;;
32323;SDS011;25666;44.350;9.222;2023-11-19T04:48:29;6.78;;;2.60;;
32323;SDS011;25666;44.350;9.222;2023-11-19T04:50:55;9.07;;;2.55;;
32323;SDS011;25666;44.350;9.222;2023-11-19T04:53:20;5.70;;;2.85;;
32323;SDS011;25666;44.350;9.222;2023-11-19T04:55:46;10.75;;;3.45;;
32323;SDS011;25666;44.350;9.222;2023-11-19T04:58:12;5.55;;;2.67;;
32323;SDS011;25666;44.350;9.222;2023-11-19T05:00:38;3.95;;;2.53;;
32323;SDS011;25666;44.350;9.222;2023-11-19T05:03:04;6.75;;;2.65;;
32323;SDS011;25666;44.350;9.222;2023-11-19T05:05:31;8.90;;;3.25;;
32323;SDS011;25666;44.350;9.222;2023-11-19T05:07:57;5.63;;;2.75;;
32323;SDS011;25666;44.350;9.222;2023-11-19T05:10:23;13.55;;;2.92;;
32323;SDS011;25666;44.350;9.222;2023-11-19T05:12:50;8.85;;;3.92;;
32323;SDS011;25666;44.350;9.222;2023-11-19T05:15:17;8.85;;;2.75;;
32323;SDS011;25666;44.350;9.222;2023-11-19T05:17:43;3.63;;;2.72;;
32323;SDS011;25666;44.350;9.222;2023-11-19T05:20:09;5.80;;;2.55;;
32323;SDS011;25666;44.350;9.222;2023-11-19T05:22:41;6.43;;;2.92;;
32323;SDS011;25666;44.350;9.222;2023-11-19T05:25:08;6.88;;;3.40;;
32323;SDS011;25666;44.350;9.222;2023-11-19T05:27:35;5.57;;;2.53;;
32323;SDS011;25666;44.350;9.222;2023-11-19T05:30:04;8.00;;;2.92;;
32323;SDS011;25666;44.350;9.222;2023-11-19T05:32:35;7.45;;;2.60;;
32323;SDS011;25666;44.350;9.222;2023-11-19T05:35:01;6.75;;;2.53;;
32323;SDS011;25666;44.350;9.222;2023-11-19T05:37:27;4.05;;;2.58;;
32323;SDS011;25666;44.350;9.222;2023-11-19T05:39:52;3.50;;;2.58;;
32323;SDS011;25666;44.350;9.222;2023-11-19T05:42:18;7.88;;;3.28;;
32323;SDS011;25666;44.350;9.222;2023-11-19T05:44:45;7.40;;;2.60;;
32323;SDS011;25666;44.350;9.222;2023-11-19T05:47:11;7.00;;;3.63;;
32323;SDS011;25666;44.350;9.222;2023-11-19T05:49:37;4.53;;;2.55;;
32323;SDS011;25666;44.350;9.222;2023-11-19T05:52:03;5.13;;;2.92;;
32323;SDS011;25666;44.350;9.222;2023-11-19T05:54:29;7.95;;;2.63;;
32323;SDS011;25666;44.350;9.222;2023-11-19T05:56:54;8.38;;;2.78;;
32323;SDS011;25666;44.350;9.222;2023-11-19T05:59:20;14.38;;;3.10;;
32323;SDS011;25666;44.350;9.222;2023-11-19T06:01:48;11.50;;;2.63;;
32323;SDS011;25666;44.350;9.222;2023-11-19T06:04:14;9.30;;;2.83;;
32323;SDS011;25666;44.350;9.222;2023-11-19T06:06:39;8.52;;;3.00;;
32323;SDS011;25666;44.350;9.222;2023-11-19T06:09:05;4.82;;;2.90;;
32323;SDS011;25666;44.350;9.222;2023-11-19T06:11:35;6.90;;;2.90;;
32323;SDS011;25666;44.350;9.222;2023-11-19T06:14:01;6.20;;;2.45;;
32323;SDS011;25666;44.350;9.222;2023-11-19T06:16:28;7.05;;;2.95;;
32323;SDS011;25666;44.350;9.222;2023-11-19T06:18:54;5.20;;;2.65;;
32323;SDS011;25666;44.350;9.222;2023-11-19T06:21:20;5.00;;;2.85;;
32323;SDS011;25666;44.350;9.222;2023-11-19T06:23:46;4.53;;;2.90;;
32323;SDS011;25666;44.350;9.222;2023-11-19T06:26:12;5.50;;;3.00;;
32323;SDS011;25666;44.350;9.222;2023-11-19T06:28:39;9.27;;;2.92;;
32323;SDS011;25666;44.350;9.222;2023-11-19T06:31:04;7.70;;;3.20;;
32323;SDS011;25666;44.350;9.222;2023-11-19T06:33:31;8.80;;;2.95;;
32323;SDS011;25666;44.350;9.222;2023-11-19T06:35:56;6.47;;;2.60;;
32323;SDS011;25666;44.350;9.222;2023-11-19T06:38:22;6.07;;;2.30;;
32323;SDS011;25666;44.350;9.222;2023-11-19T06:40:49;7.85;;;2.97;;
32323;SDS011;25666;44.350;9.222;2023-11-19T06:43:14;6.13;;;2.63;;
32323;SDS011;25666;44.350;9.222;2023-11-19T06:45:40;5.65;;;2.58;;
32323;SDS011;25666;44.350;9.222;2023-11-19T06:48:06;7.15;;;3.03;;
32323;SDS011;25666;44.350;9.222;2023-11-19T06:50:32;3.95;;;2.65;;
32323;SDS011;25666;44.350;9.222;2023-11-19T06:52:58;6.15;;;2.80;;
32323;SDS011;25666;44.350;9.222;2023-11-19T06:55:29;5.05;;;2.83;;
32323;SDS011;25666;44.350;9.222;2023-11-19T06:57:55;5.43;;;3.05;;
32323;SDS011;25666;44.350;9.222;2023-11-19T07:00:21;4.10;;;2.60;;
32323;SDS011;25666;44.350;9.222;2023-11-19T07:02:47;8.30;;;2.92;;
32323;SDS011;25666;44.350;9.222;2023-11-19T07:05:12;11.75;;;3.00;;
32323;SDS011;25666;44.350;9.222;2023-11-19T07:07:38;9.23;;;3.05;;
32323;SDS011;25666;44.350;9.222;2023-11-19T07:10:05;4.88;;;2.50;;
32323;SDS011;25666;44.350;9.222;2023-11-19T07:12:34;7.53;;;2.95;;
32323;SDS011;25666;44.350;9.222;2023-11-19T07:15:01;8.00;;;2.92;;
32323;SDS011;25666;44.350;9.222;2023-11-19T07:17:29;5.90;;;2.63;;
32323;SDS011;25666;44.350;9.222;2023-11-19T07:19:56;7.20;;;2.55;;
32323;SDS011;25666;44.350;9.222;2023-11-19T07:22:24;8.27;;;2.88;;
32323;SDS011;25666;44.350;9.222;2023-11-19T07:24:50;3.58;;;2.35;;
32323;SDS011;25666;44.350;9.222;2023-11-19T07:27:16;3.58;;;2.15;;
32323;SDS011;25666;44.350;9.222;2023-11-19T07:29:43;9.35;;;2.85;;
32323;SDS011;25666;44.350;9.222;2023-11-19T07:32:09;6.07;;;2.60;;
32323;SDS011;25666;44.350;9.222;2023-11-19T07:34:39;7.10;;;2.45;;
32323;SDS011;25666;44.350;9.222;2023-11-19T07:37:05;7.07;;;3.20;;
32323;SDS011;25666;44.350;9.222;2023-11-19T07:39:31;7.45;;;2.63;;
32323;SDS011;25666;44.350;9.222;2023-11-19T07:41:58;5.85;;;2.80;;
32323;SDS011;25666;44.350;9.222;2023-11-19T07:44:24;7.20;;;3.22;;
32323;SDS011;25666;44.350;9.222;2023-11-19T07:46:50;4.05;;;2.40;;
32323;SDS011;25666;44.350;9.222;2023-11-19T07:49:16;5.70;;;2.60;;
32323;SDS011;25666;44.350;9.222;2023-11-19T07:51:41;8.05;;;2.80;;
32323;SDS011;25666;44.350;9.222;2023-11-19T07:54:07;8.07;;;3.33;;
32323;SDS011;25666;44.350;9.222;2023-11-19T07:56:33;8.10;;;2.80;;
32323;SDS011;25666;44.350;9.222;2023-11-19T07:59:00;5.25;;;3.05;;
32323;SDS011;25666;44.350;9.222;2023-11-19T08:01:26;6.45;;;2.70;;
32323;SDS011;25666;44.350;9.222;2023-11-19T08:03:52;6.78;;;2.90;;
32323;SDS011;25666;44.350;9.222;2023-11-19T08:06:18;7.68;;;2.60;;
32323;SDS011;25666;44.350;9.222;2023-11-19T08:08:43;10.77;;;3.53;;
32323;SDS011;25666;44.350;9.222;2023-11-19T08:11:10;8.15;;;3.65;;
32323;SDS011;25666;44.350;9.222;2023-11-19T08:13:35;10.32;;;3.22;;
32323;SDS011;25666;44.350;9.222;2023-11-19T08:16:01;15.30;;;3.15;;
32323;SDS011;25666;44.350;9.222;2023-11-19T08:18:27;6.72;;;3.20;;
32323;SDS011;25666;44.350;9.222;2023-11-19T08:20:52;7.35;;;2.80;;
32323;SDS011;25666;44.350;9.222;2023-11-19T08:23:21;6.25;;;2.92;;
32323;SDS011;25666;44.350;9.222;2023-11-19T08:25:48;6.65;;;2.95;;
32323;SDS011;25666;44.350;9.222;2023-11-19T08:28:14;6.72;;;3.17;;
32323;SDS011;25666;44.350;9.222;2023-11-19T08:30:40;5.18;;;2.80;;
32323;SDS011;25666;44.350;9.222;2023-11-19T08:33:06;10.95;;;2.90;;
32323;SDS011;25666;44.350;9.222;2023-11-19T08:35:32;7.60;;;2.92;;
32323;SDS011;25666;44.350;9.222;2023-11-19T08:37:58;13.75;;;3.03;;
32323;SDS011;25666;44.350;9.222;2023-11-19T08:40:24;10.73;;;3.08;;
32323;SDS011;25666;44.350;9.222;2023-11-19T08:42:53;16.10;;;3.38;;
32323;SDS011;25666;44.350;9.222;2023-11-19T08:45:18;10.13;;;3.20;;
32323;SDS011;25666;44.350;9.222;2023-11-19T08:47:44;12.43;;;3.22;;
32323;SDS011;25666;44.350;9.222;2023-11-19T08:50:10;9.13;;;3.50;;
32323;SDS011;25666;44.350;9.222;2023-11-19T08:52:36;10.27;;;3.30;;
32323;SDS011;25666;44.350;9.222;2023-11-19T08:55:02;6.47;;;3.42;;
32323;SDS011;25666;44.350;9.222;2023-11-19T08:57:30;8.48;;;3.40;;
32323;SDS011;25666;44.350;9.222;2023-11-19T08:59:56;11.05;;;3.15;;
32323;SDS011;25666;44.350;9.222;2023-11-19T09:02:22;9.15;;;3.00;;
32323;SDS011;25666;44.350;9.222;2023-11-19T09:04:47;10.88;;;3.28;;
32323;SDS011;25666;44.350;9.222;2023-11-19T09:07:13;11.57;;;3.70;;
32323;SDS011;25666;44.350;9.222;2023-11-19T09:09:38;16.27;;;4.95;;
32323;SDS011;25666;44.350;9.222;2023-11-19T09:12:04;10.45;;;3.15;;
32323;SDS011;25666;44.350;9.222;2023-11-19T09:14:30;9.40;;;3.65;;
32323;SDS011;25666;44.350;9.222;2023-11-19T09:16:56;8.38;;;3.38;;
32323;SDS011;25666;44.350;9.222;2023-11-19T09:19:23;11.82;;;4.35;;
32323;SDS011;25666;44.350;9.222;2023-11-19T09:21:49;9.02;;;3.72;;
32323;SDS011;25666;44.350;9.222;2023-11-19T09:24:14;8.68;;;3.55;;
32323;SDS011;25666;44.350;9.222;2023-11-19T09:26:40;14.88;;;3.92;;
32323;SDS011;25666;44.350;9.222;2023-11-19T09:29:07;9.45;;;4.05;;
32323;SDS011;25666;44.350;9.222;2023-11-19T09:31:33;10.45;;;4.15;;
32323;SDS011;25666;44.350;9.222;2023-11-19T09:34:00;15.10;;;4.07;;
32323;SDS011;25666;44.350;9.222;2023-11-19T09:36:25;12.90;;;4.00;;
32323;SDS011;25666;44.350;9.222;2023-11-19T09:38:51;12.50;;;4.05;;
32323;SDS011;25666;44.350;9.222;2023-11-19T09:41:18;15.20;;;4.50;;
32323;SDS011;25666;44.350;9.222;2023-11-19T09:43:44;9.65;;;3.28;;
32323;SDS011;25666;44.350;9.222;2023-11-19T09:46:12;10.55;;;3.42;;
32323;SDS011;25666;44.350;9.222;2023-11-19T09:48:40;16.38;;;3.47;;
32323;SDS011;25666;44.350;9.222;2023-11-19T09:51:08;12.88;;;3.53;;
32323;SDS011;25666;44.350;9.222;2023-11-19T09:53:35;5.93;;;3.17;;
32323;SDS011;25666;44.350;9.222;2023-11-19T09:56:02;8.90;;;3.63;;
32323;SDS011;25666;44.350;9.222;2023-11-19T09:58:32;13.88;;;3.58;;
32323;SDS011;25666;44.350;9.222;2023-11-19T10:00:58;11.70;;;3.67;;
32323;SDS011;25666;44.350;9.222;2023-11-19T10:03:26;9.60;;;2.95;;
32323;SDS011;25666;44.350;9.222;2023-11-19T10:05:54;9.00;;;2.80;;
32323;SDS011;25666;44.350;9.222;2023-11-19T10:08:21;10.57;;;2.28;;
32323;SDS011;25666;44.350;9.222;2023-11-19T10:10:47;9.60;;;3.63;;
32323;SDS011;25666;44.350;9.222;2023-11-19T10:13:13;5.95;;;2.28;;
32323;SDS011;25666;44.350;9.222;2023-11-19T10:15:49;3.78;;;1.75;;
32323;SDS011;25666;44.350;9.222;2023-11-19T10:18:33;7.38;;;2.25;;
32323;SDS011;25666;44.350;9.222;2023-11-19T10:21:03;4.07;;;1.90;;
32323;SDS011;25666;44.350;9.222;2023-11-19T10:23:45;4.18;;;1.83;;
32323;SDS011;25666;44.350;9.222;2023-11-19T10:26:17;6.70;;;2.30;;
32323;SDS011;25666;44.350;9.222;2023-11-19T10:28:45;9.70;;;2.90;;
32323;SDS011;25666;44.350;9.222;2023-11-19T10:31:14;7.78;;;2.22;;
32323;SDS011;25666;44.350;9.222;2023-11-19T10:33:45;9.52;;;1.80;;
32323;SDS011;25666;44.350;9.222;2023-11-19T10:36:13;2.72;;;1.75;;
32323;SDS011;25666;44.350;9.222;2023-11-19T10:38:40;6.78;;;2.40;;
32323;SDS011;25666;44.350;9.222;2023-11-19T10:41:06;10.20;;;2.50;;
32323;SDS011;25666;44.350;9.222;2023-11-19T10:43:43;9.35;;;2.15;;
32323;SDS011;25666;44.350;9.222;2023-11-19T10:46:14;8.80;;;2.00;;
32323;SDS011;25666;44.350;9.222;2023-11-19T10:48:40;6.72;;;1.80;;
32323;SDS011;25666;44.350;9.222;2023-11-19T10:51:06;6.75;;;1.77;;
32323;SDS011;25666;44.350;9.222;2023-11-19T10:53:36;9.32;;;2.33;;
32323;SDS011;25666;44.350;9.222;2023-11-19T10:56:06;11.23;;;1.90;;
32323;SDS011;25666;44.350;9.222;2023-11-19T10:58:36;4.70;;;2.67;;
32323;SDS011;25666;44.350;9.222;2023-11-19T11:01:07;4.72;;;1.80;;
32323;SDS011;25666;44.350;9.222;2023-11-19T11:03:41;5.82;;;2.05;;
32323;SDS011;25666;44.350;9.222;2023-11-19T11:06:11;5.57;;;2.10;;
32323;SDS011;25666;44.350;9.222;2023-11-19T11:08:38;7.72;;;2.05;;
32323;SDS011;25666;44.350;9.222;2023-11-19T11:11:05;6.05;;;1.67;;
32323;SDS011;25666;44.350;9.222;2023-11-19T11:13:32;6.03;;;2.13;;
32323;SDS011;25666;44.350;9.222;2023-11-19T11:15:59;6.70;;;1.80;;
32323;SDS011;25666;44.350;9.222;2023-11-19T11:18:25;5.50;;;2.10;;
32323;SDS011;25666;44.350;9.222;2023-11-19T11:21:11;4.05;;;1.77;;
32323;SDS011;25666;44.350;9.222;2023-11-19T11:29:04;3.83;;;1.50;;
32323;SDS011;25666;44.350;9.222;2023-11-19T11:39:50;7.75;;;2.45;;
32323;SDS011;25666;44.350;9.222;2023-11-19T11:50:13;5.10;;;1.90;;
32323;SDS011;25666;44.350;9.222;2023-11-19T11:55:24;4.15;;;1.30;;
32323;SDS011;25666;44.350;9.222;2023-11-19T11:57:56;15.82;;;1.65;;
32323;SDS011;25666;44.350;9.222;2023-11-19T12:00:22;9.07;;;2.03;;
32323;SDS011;25666;44.350;9.222;2023-11-19T12:03:07;7.68;;;2.65;;
32323;SDS011;25666;44.350;9.222;2023-11-19T12:05:38;6.60;;;1.55;;
32323;SDS011;25666;44.350;9.222;2023-11-19T12:08:06;6.07;;;1.58;;
32323;SDS011;25666;44.350;9.222;2023-11-19T12:10:45;8.13;;;1.83;;
32323;SDS011;25666;44.350;9.222;2023-11-19T12:13:13;3.15;;;1.60;;
32323;SDS011;25666;44.350;9.222;2023-11-19T12:18:23;6.07;;;1.42;;
32323;SDS011;25666;44.350;9.222;2023-11-19T12:20:48;7.53;;;1.95;;
32323;SDS011;25666;44.350;9.222;2023-11-19T12:23:14;13.43;;;2.40;;
32323;SDS011;25666;44.350;9.222;2023-11-19T12:25:40;6.88;;;2.25;;
32323;SDS011;25666;44.350;9.222;2023-11-19T12:28:11;4.38;;;1.52;;
32323;SDS011;25666;44.350;9.222;2023-11-19T12:30:39;6.28;;;1.67;;
32323;SDS011;25666;44.350;9.222;2023-11-19T12:33:08;13.32;;;2.15;;
32323;SDS011;25666;44.350;9.222;2023-11-19T12:35:44;7.65;;;1.88;;
32323;SDS011;25666;44.350;9.222;2023-11-19T12:41:09;15.90;;;2.92;;
32323;SDS011;25666;44.350;9.222;2023-11-19T12:43:37;2.33;;;1.65;;
32323;SDS011;25666;44.350;9.222;2023-11-19T12:46:18;5.88;;;1.58;;
32323;SDS011;25666;44.350;9.222;2023-11-19T12:51:13;6.82;;;2.03;;
32323;SDS011;25666;44.350;9.222;2023-11-19T12:53:48;11.93;;;2.50;;
32323;SDS011;25666;44.350;9.222;2023-11-19T12:56:15;6.40;;;2.10;;
32323;SDS011;25666;44.350;9.222;2023-11-19T12:58:41;5.03;;;2.00;;
32323;SDS011;25666;44.350;9.222;2023-11-19T13:01:08;12.98;;;1.88;;
32323;SDS011;25666;44.350;9.222;2023-11-19T13:03:37;3.28;;;1.90;;
32323;SDS011;25666;44.350;9.222;2023-11-19T13:06:06;9.88;;;2.15;;
32323;SDS011;25666;44.350;9.222;2023-11-19T13:08:40;13.13;;;2.67;;
32323;SDS011;25666;44.350;9.222;2023-11-19T13:11:07;4.40;;;1.80;;
32323;SDS011;25666;44.350;9.222;2023-11-19T13:13:33;8.38;;;2.05;;
32323;SDS011;25666;44.350;9.222;2023-11-19T13:16:26;6.85;;;1.95;;
32323;SDS011;25666;44.350;9.222;2023-11-19T13:18:52;5.85;;;2.05;;
32323;SDS011;25666;44.350;9.222;2023-11-19T13:21:18;5.20;;;1.67;;
32323;SDS011;25666;44.350;9.222;2023-11-19T13:23:44;9.00;;;1.98;;
32323;SDS011;25666;44.350;9.222;2023-11-19T13:26:10;3.38;;;1.70;;
32323;SDS011;25666;44.350;9.222;2023-11-19T13:28:36;4.85;;;2.00;;
32323;SDS011;25666;44.350;9.222;2023-11-19T13:31:03;3.70;;;1.58;;
32323;SDS011;25666;44.350;9.222;2023-11-19T13:33:29;8.77;;;2.15;;
32323;SDS011;25666;44.350;9.222;2023-11-19T13:35:55;8.55;;;1.92;;
32323;SDS011;25666;44.350;9.222;2023-11-19T13:38:21;5.32;;;1.63;;
32323;SDS011;25666;44.350;9.222;2023-11-19T13:40:48;5.40;;;2.28;;
32323;SDS011;25666;44.350;9.222;2023-11-19T13:43:13;3.60;;;1.48;;
32323;SDS011;25666;44.350;9.222;2023-11-19T13:45:40;6.95;;;2.03;;
32323;SDS011;25666;44.350;9.222;2023-11-19T13:48:06;8.70;;;2.38;;
32323;SDS011;25666;44.350;9.222;2023-11-19T13:50:33;6.25;;;2.00;;
32323;SDS011;25666;44.350;9.222;2023-11-19T13:53:01;7.75;;;2.50;;
32323;SDS011;25666;44.350;9.222;2023-11-19T13:55:26;8.25;;;2.53;;
32323;SDS011;25666;44.350;9.222;2023-11-19T13:57:52;8.80;;;2.40;;
32323;SDS011;25666;44.350;9.222;2023-11-19T14:00:19;3.40;;;1.80;;
32323;SDS011;25666;44.350;9.222;2023-11-19T14:02:45;4.75;;;1.92;;
32323;SDS011;25666;44.350;9.222;2023-11-19T14:05:13;5.10;;;1.90;;
32323;SDS011;25666;44.350;9.222;2023-11-19T14:07:40;6.80;;;1.77;;
32323;SDS011;25666;44.350;9.222;2023-11-19T14:10:07;4.00;;;1.50;;
32323;SDS011;25666;44.350;9.222;2023-11-19T14:12:34;3.40;;;2.17;;
32323;SDS011;25666;44.350;9.222;2023-11-19T14:15:04;7.57;;;2.00;;
32323;SDS011;25666;44.350;9.222;2023-11-19T14:17:35;8.43;;;2.13;;
32323;SDS011;25666;44.350;9.222;2023-11-19T14:20:01;5.57;;;1.77;;
32323;SDS011;25666;44.350;9.222;2023-11-19T14:22:29;6.60;;;1.85;;
32323;SDS011;25666;44.350;9.222;2023-11-19T14:24:55;3.50;;;1.50;;
32323;SDS011;25666;44.350;9.222;2023-11-19T14:27:21;5.10;;;1.50;;
32323;SDS011;25666;44.350;9.222;2023-11-19T14:29:47;4.72;;;1.42;;
32323;SDS011;25666;44.350;9.222;2023-11-19T14:32:13;8.10;;;1.90;;
32323;SDS011;25666;44.350;9.222;2023-11-19T14:34:38;6.65;;;1.88;;
32323;SDS011;25666;44.350;9.222;2023-11-19T14:37:04;7.57;;;2.05;;
32323;SDS011;25666;44.350;9.222;2023-11-19T14:39:30;5.05;;;2.13;;
32323;SDS011;25666;44.350;9.222;2023-11-19T14:41:59;6.03;;;2.13;;
32323;SDS011;25666;44.350;9.222;2023-11-19T14:44:29;7.60;;;1.83;;
32323;SDS011;25666;44.350;9.222;2023-11-19T14:46:55;8.63;;;2.03;;
32323;SDS011;25666;44.350;9.222;2023-11-19T14:49:20;9.82;;;2.85;;
32323;SDS011;25666;44.350;9.222;2023-11-19T14:51:46;4.10;;;2.00;;
32323;SDS011;25666;44.350;9.222;2023-11-19T14:54:11;8.30;;;2.95;;
32323;SDS011;25666;44.350;9.222;2023-11-19T14:56:39;5.07;;;1.70;;
32323;SDS011;25666;44.350;9.222;2023-11-19T14:59:05;3.10;;;1.80;;
32323;SDS011;25666;44.350;9.222;2023-11-19T15:01:31;4.90;;;1.63;;
32323;SDS011;25666;44.350;9.222;2023-11-19T15:03:56;9.18;;;1.80;;
32323;SDS011;25666;44.350;9.222;2023-11-19T15:06:25;8.82;;;1.90;;
32323;SDS011;25666;44.350;9.222;2023-11-19T15:08:52;8.95;;;2.55;;
32323;SDS011;25666;44.350;9.222;2023-11-19T15:11:18;7.80;;;2.00;;
32323;SDS011;25666;44.350;9.222;2023-11-19T15:13:45;5.65;;;1.70;;
32323;SDS011;25666;44.350;9.222;2023-11-19T15:16:13;11.20;;;2.13;;
32323;SDS011;25666;44.350;9.222;2023-11-19T15:18:39;3.03;;;1.90;;
32323;SDS011;25666;44.350;9.222;2023-11-19T15:21:07;3.72;;;1.50;;
32323;SDS011;25666;44.350;9.222;2023-11-19T15:23:33;6.03;;;2.50;;